This is the latest recevied weather packets stored in our database for station/object DM4XI-13. If no packets are shown the sender has not sent any weather packets the latest 10 day(s).
| Time | Temp. | Humidity | Pressure | Rain* | Wind** | Luminosity | Snow |
|---|---|---|---|---|---|---|---|
| 1777623386 | 15.56° C | 40% | 1026.3 hPa | 0 mm | 0.45 m/s, 271° | 444 W/m² | - |
| 1777623325 | 15.56° C | 40% | 1026.4 hPa | 0 mm | 0 m/s | 444 W/m² | - |
| 1777623264 | 15° C | 40% | 1026.4 hPa | 0 mm | 0.45 m/s, 210° | 441 W/m² | - |
| 1777623203 | 15° C | 41% | 1026.2 hPa | 0 mm | 0 m/s | 439 W/m² | - |
| 1777623142 | 14.44° C | 42% | 1026.3 hPa | 0 mm | 0.45 m/s, 142° | 437 W/m² | - |
| 1777623081 | 14.44° C | 41% | 1026.3 hPa | 0 mm | 0.45 m/s, 170° | 436 W/m² | - |
| 1777623020 | 14.44° C | 42% | 1026.3 hPa | 0 mm | 0.89 m/s, 322° | 435 W/m² | - |
| 1777622959 | 14.44° C | 42% | 1026.4 hPa | 0 mm | 1.34 m/s, 102° | 432 W/m² | - |
| 1777622898 | 14.44° C | 42% | 1026.6 hPa | 0 mm | 0.45 m/s, 170° | 429 W/m² | - |
| 1777622837 | 14.44° C | 42% | 1026.2 hPa | 0 mm | 0.89 m/s, 152° | 427 W/m² | - |
| 1777622776 | 14.44° C | 43% | 1026.3 hPa | 0 mm | 0.89 m/s, 95° | 426 W/m² | - |
| 1777622715 | 14.44° C | 41% | 1026.2 hPa | 0 mm | 0.89 m/s, 162° | 423 W/m² | - |
| 1777622655 | 15° C | 41% | 1026.2 hPa | 0 mm | 2.68 m/s, 137° | 400 W/m² | - |
| 1777622593 | 14.44° C | 42% | 1026.4 hPa | 0 mm | 0.89 m/s, 150° | 419 W/m² | - |
| 1777622532 | 14.44° C | 43% | 1026.4 hPa | 0 mm | 0.45 m/s, 119° | 418 W/m² | - |
| 1777622471 | 14.44° C | 42% | 1026.3 hPa | 0 mm | 0 m/s | 415 W/m² | - |
| 1777622410 | 14.44° C | 41% | 1026.5 hPa | 0 mm | 0.89 m/s, 151° | 412 W/m² | - |
| 1777622349 | 14.44° C | 45% | 1026.4 hPa | 0 mm | 0.45 m/s, 168° | 410 W/m² | - |
| 1777622288 | 14.44° C | 43% | 1026.4 hPa | 0 mm | 0.45 m/s, 214° | 408 W/m² | - |
| 1777622227 | 14.44° C | 43% | 1026.5 hPa | 0 mm | 0.45 m/s, 163° | 406 W/m² | - |
| 1777622166 | 14.44° C | 43% | 1026.6 hPa | 0 mm | 0 m/s | 405 W/m² | - |
| 1777622106 | 14.44° C | 43% | 1026.4 hPa | 0 mm | 0.89 m/s, 149° | 403 W/m² | - |
| 1777622045 | 14.44° C | 41% | 1026.3 hPa | 0 mm | 1.34 m/s, 112° | 401 W/m² | - |
| 1777621983 | 14.44° C | 43% | 1026.4 hPa | 0 mm | 0.45 m/s, 197° | 398 W/m² | - |
| 1777621922 | 14.44° C | 42% | 1026.3 hPa | 0 mm | 0.45 m/s, 182° | 396 W/m² | - |
* Rain latest hour (hover to see other rain measurements)
** Current wind speed in m/s (hover to see current wind gust speed)